sensor_id;sensor_type;location;lat;lon;timestamp;pressure;altitude;pressure_sealevel;temperature;humidity
71299;BME280;59083;47.974;21.722;2022-09-09T00:05:41;100163.44;;;18.42;100.00
71299;BME280;59083;47.974;21.722;2022-09-09T00:08:58;100143.78;;;18.30;100.00
71299;BME280;59083;47.974;21.722;2022-09-09T00:12:06;100148.53;;;18.23;100.00
71299;BME280;59083;47.974;21.722;2022-09-09T00:21:58;100235.53;;;18.30;100.00
71299;BME280;59083;47.974;21.722;2022-09-09T00:25:12;100263.91;;;18.33;100.00
71299;BME280;59083;47.974;21.722;2022-09-09T00:28:28;100279.97;;;18.39;100.00
71299;BME280;59083;47.974;21.722;2022-09-09T00:31:33;100291.81;;;18.38;100.00
71299;BME280;59083;47.974;21.722;2022-09-09T00:34:35;100300.47;;;18.40;100.00
71299;BME280;59083;47.974;21.722;2022-09-09T00:37:37;100294.87;;;18.30;100.00
71299;BME280;59083;47.974;21.722;2022-09-09T00:44:33;100266.91;;;18.20;100.00
71299;BME280;59083;47.974;21.722;2022-09-09T00:47:46;100252.44;;;17.97;100.00
71299;BME280;59083;47.974;21.722;2022-09-09T00:50:57;100232.75;;;17.85;100.00
71299;BME280;59083;47.974;21.722;2022-09-09T00:54:20;100241.91;;;17.84;100.00
71299;BME280;59083;47.974;21.722;2022-09-09T00:57:31;100241.19;;;17.89;100.00
71299;BME280;59083;47.974;21.722;2022-09-09T01:00:46;100221.66;;;17.82;100.00
71299;BME280;59083;47.974;21.722;2022-09-09T01:03:54;100212.50;;;17.83;100.00
71299;BME280;59083;47.974;21.722;2022-09-09T01:07:18;100215.75;;;17.85;100.00
71299;BME280;59083;47.974;21.722;2022-09-09T01:13:35;100223.81;;;17.96;100.00
71299;BME280;59083;47.974;21.722;2022-09-09T01:16:37;100216.56;;;17.97;100.00
71299;BME280;59083;47.974;21.722;2022-09-09T01:29:36;100229.66;;;18.05;100.00
71299;BME280;59083;47.974;21.722;2022-09-09T01:36:00;100236.13;;;18.04;100.00
71299;BME280;59083;47.974;21.722;2022-09-09T01:39:05;100249.84;;;18.02;100.00
71299;BME280;59083;47.974;21.722;2022-09-09T01:42:09;100240.56;;;18.10;100.00
71299;BME280;59083;47.974;21.722;2022-09-09T01:45:12;100242.66;;;18.08;100.00
71299;BME280;59083;47.974;21.722;2022-09-09T01:48:13;100242.66;;;18.08;100.00
71299;BME280;59083;47.974;21.722;2022-09-09T01:51:15;100241.00;;;18.07;100.00
71299;BME280;59083;47.974;21.722;2022-09-09T01:54:18;100227.94;;;17.99;100.00
71299;BME280;59083;47.974;21.722;2022-09-09T02:00:33;100214.91;;;17.96;100.00
71299;BME280;59083;47.974;21.722;2022-09-09T02:03:38;100222.44;;;17.94;100.00
71299;BME280;59083;47.974;21.722;2022-09-09T02:06:40;100228.16;;;17.97;100.00
71299;BME280;59083;47.974;21.722;2022-09-09T02:09:44;100218.66;;;17.95;100.00
71299;BME280;59083;47.974;21.722;2022-09-09T02:12:55;100211.66;;;17.94;100.00
71299;BME280;59083;47.974;21.722;2022-09-09T02:16:03;100210.56;;;17.95;100.00
71299;BME280;59083;47.974;21.722;2022-09-09T02:19:28;100212.69;;;17.93;100.00
71299;BME280;59083;47.974;21.722;2022-09-09T02:22:33;100203.19;;;17.90;100.00
71299;BME280;59083;47.974;21.722;2022-09-09T02:25:36;100214.13;;;17.84;100.00
71299;BME280;59083;47.974;21.722;2022-09-09T02:28:39;100210.37;;;17.85;100.00
71299;BME280;59083;47.974;21.722;2022-09-09T02:31:44;100204.25;;;17.89;100.00
71299;BME280;59083;47.974;21.722;2022-09-09T02:34:56;100184.31;;;17.90;100.00
71299;BME280;59083;47.974;21.722;2022-09-09T02:38:04;100157.59;;;17.89;100.00
71299;BME280;59083;47.974;21.722;2022-09-09T02:41:06;100114.63;;;17.82;100.00
71299;BME280;59083;47.974;21.722;2022-09-09T02:44:13;100108.31;;;17.77;100.00
71299;BME280;59083;47.974;21.722;2022-09-09T02:47:33;100106.91;;;17.74;100.00
71299;BME280;59083;47.974;21.722;2022-09-09T02:54:29;100111.37;;;17.68;100.00
71299;BME280;59083;47.974;21.722;2022-09-09T02:57:34;100126.97;;;17.66;100.00
71299;BME280;59083;47.974;21.722;2022-09-09T03:00:39;100161.44;;;17.64;100.00
71299;BME280;59083;47.974;21.722;2022-09-09T03:03:41;100169.41;;;17.71;100.00
71299;BME280;59083;47.974;21.722;2022-09-09T03:06:43;100150.53;;;17.71;100.00
71299;BME280;59083;47.974;21.722;2022-09-09T03:09:46;100128.16;;;17.70;100.00
71299;BME280;59083;47.974;21.722;2022-09-09T03:12:48;100136.34;;;17.75;100.00
71299;BME280;59083;47.974;21.722;2022-09-09T03:15:49;100152.75;;;17.74;100.00
71299;BME280;59083;47.974;21.722;2022-09-09T03:18:51;100144.16;;;17.77;100.00
71299;BME280;59083;47.974;21.722;2022-09-09T03:21:54;100157.16;;;17.80;100.00
71299;BME280;59083;47.974;21.722;2022-09-09T03:24:55;100160.34;;;17.77;100.00
71299;BME280;59083;47.974;21.722;2022-09-09T03:27:57;100159.53;;;17.77;100.00
71299;BME280;59083;47.974;21.722;2022-09-09T03:31:03;100161.16;;;17.77;100.00
71299;BME280;59083;47.974;21.722;2022-09-09T03:34:07;100167.38;;;17.78;100.00
71299;BME280;59083;47.974;21.722;2022-09-09T03:37:10;100159.03;;;17.80;100.00
71299;BME280;59083;47.974;21.722;2022-09-09T03:40:12;100168.19;;;17.79;100.00
71299;BME280;59083;47.974;21.722;2022-09-09T03:43:14;100167.97;;;17.80;100.00
71299;BME280;59083;47.974;21.722;2022-09-09T03:46:18;100175.13;;;17.74;100.00
71299;BME280;59083;47.974;21.722;2022-09-09T03:49:20;100179.94;;;17.72;100.00
71299;BME280;59083;47.974;21.722;2022-09-09T03:52:23;100167.16;;;17.68;100.00
71299;BME280;59083;47.974;21.722;2022-09-09T03:55:26;100169.28;;;17.66;100.00
71299;BME280;59083;47.974;21.722;2022-09-09T03:58:28;100168.22;;;17.67;100.00
71299;BME280;59083;47.974;21.722;2022-09-09T04:01:31;100179.81;;;17.67;100.00
71299;BME280;59083;47.974;21.722;2022-09-09T04:04:32;100190.84;;;17.66;100.00
71299;BME280;59083;47.974;21.722;2022-09-09T04:07:33;100191.19;;;17.69;100.00
71299;BME280;59083;47.974;21.722;2022-09-09T04:10:35;100182.06;;;17.70;100.00
71299;BME280;59083;47.974;21.722;2022-09-09T04:13:39;100184.16;;;17.68;100.00
71299;BME280;59083;47.974;21.722;2022-09-09T04:16:41;100181.47;;;17.68;100.00
71299;BME280;59083;47.974;21.722;2022-09-09T04:19:45;100206.56;;;17.69;100.00
71299;BME280;59083;47.974;21.722;2022-09-09T04:22:48;100192.25;;;17.68;100.00
71299;BME280;59083;47.974;21.722;2022-09-09T04:25:53;100195.53;;;17.70;100.00
71299;BME280;59083;47.974;21.722;2022-09-09T04:28:55;100199.63;;;17.73;100.00
71299;BME280;59083;47.974;21.722;2022-09-09T04:31:57;100200.22;;;17.75;100.00
71299;BME280;59083;47.974;21.722;2022-09-09T04:34:58;100201.84;;;17.76;100.00
71299;BME280;59083;47.974;21.722;2022-09-09T04:37:59;100200.06;;;17.82;100.00
71299;BME280;59083;47.974;21.722;2022-09-09T04:41:02;100215.31;;;17.88;100.00
71299;BME280;59083;47.974;21.722;2022-09-09T04:44:03;100216.91;;;17.89;100.00
71299;BME280;59083;47.974;21.722;2022-09-09T04:47:04;100216.44;;;17.92;100.00
71299;BME280;59083;47.974;21.722;2022-09-09T04:50:07;100221.34;;;17.95;100.00
71299;BME280;59083;47.974;21.722;2022-09-09T04:53:09;100217.28;;;17.92;100.00
71299;BME280;59083;47.974;21.722;2022-09-09T04:56:13;100231.00;;;17.91;100.00
71299;BME280;59083;47.974;21.722;2022-09-09T04:59:15;100223.50;;;17.93;100.00
71299;BME280;59083;47.974;21.722;2022-09-09T05:02:17;100219.25;;;17.97;100.00
71299;BME280;59083;47.974;21.722;2022-09-09T05:05:18;100221.56;;;18.05;100.00
71299;BME280;59083;47.974;21.722;2022-09-09T05:08:21;100214.88;;;18.07;100.00
71299;BME280;59083;47.974;21.722;2022-09-09T05:11:28;100203.94;;;18.14;100.00
71299;BME280;59083;47.974;21.722;2022-09-09T05:14:31;100204.62;;;18.21;100.00
71299;BME280;59083;47.974;21.722;2022-09-09T05:17:33;100220.97;;;18.31;100.00
71299;BME280;59083;47.974;21.722;2022-09-09T05:20:35;100217.00;;;18.34;100.00
71299;BME280;59083;47.974;21.722;2022-09-09T05:23:37;100219.44;;;18.35;100.00
71299;BME280;59083;47.974;21.722;2022-09-09T05:26:39;100224.09;;;18.40;100.00
71299;BME280;59083;47.974;21.722;2022-09-09T05:29:41;100225.75;;;18.41;100.00
71299;BME280;59083;47.974;21.722;2022-09-09T05:32:44;100223.13;;;18.46;100.00
71299;BME280;59083;47.974;21.722;2022-09-09T05:35:46;100225.28;;;18.44;100.00
71299;BME280;59083;47.974;21.722;2022-09-09T05:38:49;100228.06;;;18.49;100.00
71299;BME280;59083;47.974;21.722;2022-09-09T05:41:51;100231.06;;;18.52;100.00
71299;BME280;59083;47.974;21.722;2022-09-09T05:44:52;100231.69;;;18.54;100.00
71299;BME280;59083;47.974;21.722;2022-09-09T05:47:55;100240.94;;;18.58;100.00
71299;BME280;59083;47.974;21.722;2022-09-09T05:50:58;100241.53;;;18.61;100.00
71299;BME280;59083;47.974;21.722;2022-09-09T05:54:00;100241.53;;;18.61;100.00
71299;BME280;59083;47.974;21.722;2022-09-09T05:57:02;100239.38;;;18.63;100.00
71299;BME280;59083;47.974;21.722;2022-09-09T06:00:04;100238.22;;;18.58;100.00
71299;BME280;59083;47.974;21.722;2022-09-09T06:03:14;100233.97;;;18.63;100.00
71299;BME280;59083;47.974;21.722;2022-09-09T06:06:23;100247.47;;;18.63;100.00
71299;BME280;59083;47.974;21.722;2022-09-09T06:09:25;100245.59;;;18.63;100.00
71299;BME280;59083;47.974;21.722;2022-09-09T06:12:26;100242.44;;;18.66;100.00
71299;BME280;59083;47.974;21.722;2022-09-09T06:15:28;100253.47;;;18.65;100.00
71299;BME280;59083;47.974;21.722;2022-09-09T06:18:31;100244.37;;;18.71;100.00
71299;BME280;59083;47.974;21.722;2022-09-09T06:21:35;100248.88;;;18.65;100.00
71299;BME280;59083;47.974;21.722;2022-09-09T06:24:40;100243.16;;;18.62;100.00
71299;BME280;59083;47.974;21.722;2022-09-09T06:27:42;100245.78;;;18.73;100.00
71299;BME280;59083;47.974;21.722;2022-09-09T06:30:44;100255.28;;;18.76;100.00
71299;BME280;59083;47.974;21.722;2022-09-09T06:33:46;100250.03;;;18.86;100.00
71299;BME280;59083;47.974;21.722;2022-09-09T06:36:48;100254.97;;;18.89;100.00
71299;BME280;59083;47.974;21.722;2022-09-09T06:39:49;100256.84;;;18.88;100.00
71299;BME280;59083;47.974;21.722;2022-09-09T06:42:51;100256.91;;;18.93;100.00
71299;BME280;59083;47.974;21.722;2022-09-09T06:46:01;100254.47;;;18.92;100.00
71299;BME280;59083;47.974;21.722;2022-09-09T06:49:03;100263.16;;;18.94;100.00
71299;BME280;59083;47.974;21.722;2022-09-09T06:52:04;100250.37;;;18.89;100.00
71299;BME280;59083;47.974;21.722;2022-09-09T06:55:06;100248.91;;;18.82;100.00
71299;BME280;59083;47.974;21.722;2022-09-09T06:58:08;100251.13;;;18.85;100.00
71299;BME280;59083;47.974;21.722;2022-09-09T07:01:12;100263.16;;;18.94;100.00
71299;BME280;59083;47.974;21.722;2022-09-09T07:04:14;100263.00;;;19.01;100.00
71299;BME280;59083;47.974;21.722;2022-09-09T07:07:16;100267.56;;;19.17;100.00
71299;BME280;59083;47.974;21.722;2022-09-09T07:10:18;100268.38;;;19.17;100.00
71299;BME280;59083;47.974;21.722;2022-09-09T07:13:24;100265.91;;;19.32;100.00
71299;BME280;59083;47.974;21.722;2022-09-09T07:16:27;100275.72;;;19.38;100.00
71299;BME280;59083;47.974;21.722;2022-09-09T07:19:29;100279.50;;;19.37;100.00
71299;BME280;59083;47.974;21.722;2022-09-09T07:22:30;100277.22;;;19.29;100.00
71299;BME280;59083;47.974;21.722;2022-09-09T07:25:32;100274.09;;;19.37;100.00
71299;BME280;59083;47.974;21.722;2022-09-09T07:28:33;100264.44;;;19.42;100.00
71299;BME280;59083;47.974;21.722;2022-09-09T07:31:38;100263.94;;;19.45;100.00
71299;BME280;59083;47.974;21.722;2022-09-09T07:34:41;100272.66;;;19.47;100.00
71299;BME280;59083;47.974;21.722;2022-09-09T07:37:42;100283.84;;;19.38;100.00
71299;BME280;59083;47.974;21.722;2022-09-09T07:40:44;100278.38;;;19.33;100.00
71299;BME280;59083;47.974;21.722;2022-09-09T07:43:47;100268.06;;;19.30;100.00
71299;BME280;59083;47.974;21.722;2022-09-09T07:46:49;100277.84;;;19.36;100.00
71299;BME280;59083;47.974;21.722;2022-09-09T07:49:52;100277.22;;;19.29;100.00
71299;BME280;59083;47.974;21.722;2022-09-09T07:52:54;100288.09;;;19.34;100.00
71299;BME280;59083;47.974;21.722;2022-09-09T07:56:02;100288.34;;;19.33;100.00
71299;BME280;59083;47.974;21.722;2022-09-09T07:59:04;100286.41;;;19.45;100.00
71299;BME280;59083;47.974;21.722;2022-09-09T08:02:08;100281.50;;;20.02;100.00
71299;BME280;59083;47.974;21.722;2022-09-09T08:05:10;100275.78;;;20.69;97.71
71299;BME280;59083;47.974;21.722;2022-09-09T08:08:12;100272.34;;;21.11;95.22
71299;BME280;59083;47.974;21.722;2022-09-09T08:11:14;100278.34;;;21.13;93.61
71299;BME280;59083;47.974;21.722;2022-09-09T08:14:17;100277.03;;;20.88;92.77
71299;BME280;59083;47.974;21.722;2022-09-09T08:17:19;100286.47;;;21.13;92.33
71299;BME280;59083;47.974;21.722;2022-09-09T08:20:21;100280.06;;;21.24;92.85
71299;BME280;59083;47.974;21.722;2022-09-09T08:23:24;100290.34;;;21.22;93.53
71299;BME280;59083;47.974;21.722;2022-09-09T08:26:29;100285.16;;;20.88;94.04
71299;BME280;59083;47.974;21.722;2022-09-09T08:29:31;100297.44;;;20.69;95.18
71299;BME280;59083;47.974;21.722;2022-09-09T08:32:32;100292.19;;;20.57;95.31
71299;BME280;59083;47.974;21.722;2022-09-09T08:35:34;100297.19;;;20.44;95.73
71299;BME280;59083;47.974;21.722;2022-09-09T08:38:36;100289.25;;;20.37;95.01
71299;BME280;59083;47.974;21.722;2022-09-09T08:48:44;100294.97;;;20.41;94.68
71299;BME280;59083;47.974;21.722;2022-09-09T08:51:49;100299.94;;;20.49;94.52
71299;BME280;59083;47.974;21.722;2022-09-09T08:54:52;100309.19;;;20.53;94.95
71299;BME280;59083;47.974;21.722;2022-09-09T08:57:58;100296.53;;;20.58;93.17
71299;BME280;59083;47.974;21.722;2022-09-09T09:01:30;100298.41;;;20.58;93.28
71299;BME280;59083;47.974;21.722;2022-09-09T09:08:27;100302.41;;;21.09;91.43
71299;BME280;59083;47.974;21.722;2022-09-09T09:11:37;100300.47;;;21.36;90.72
71299;BME280;59083;47.974;21.722;2022-09-09T09:14:39;100299.22;;;21.49;90.82
71299;BME280;59083;47.974;21.722;2022-09-09T09:17:42;100305.22;;;21.51;89.97
71299;BME280;59083;47.974;21.722;2022-09-09T09:28:10;100315.63;;;21.00;89.85
71299;BME280;59083;47.974;21.722;2022-09-09T09:31:19;100312.34;;;20.98;91.26
71299;BME280;59083;47.974;21.722;2022-09-09T09:34:22;100312.63;;;21.02;91.00
71299;BME280;59083;47.974;21.722;2022-09-09T09:37:34;100312.88;;;20.95;90.65
71299;BME280;59083;47.974;21.722;2022-09-09T09:40:52;100316.34;;;20.91;90.75
71299;BME280;59083;47.974;21.722;2022-09-09T09:43:55;100312.88;;;20.95;91.32
71299;BME280;59083;47.974;21.722;2022-09-09T09:47:12;100309.69;;;21.03;90.55
71299;BME280;59083;47.974;21.722;2022-09-09T09:50:19;100301.97;;;21.17;89.35
71299;BME280;59083;47.974;21.722;2022-09-09T09:53:29;100318.25;;;21.59;86.93
71299;BME280;59083;47.974;21.722;2022-09-09T09:56:32;100308.81;;;22.04;86.33
71299;BME280;59083;47.974;21.722;2022-09-09T09:59:36;100302.41;;;22.40;85.90
71299;BME280;59083;47.974;21.722;2022-09-09T10:02:39;100314.09;;;22.46;85.43
71299;BME280;59083;47.974;21.722;2022-09-09T10:05:45;100323.03;;;22.31;83.50
71299;BME280;59083;47.974;21.722;2022-09-09T10:08:47;100317.03;;;22.29;84.24
71299;BME280;59083;47.974;21.722;2022-09-09T10:12:22;100316.53;;;22.37;82.93
71299;BME280;59083;47.974;21.722;2022-09-09T10:15:38;100314.41;;;22.54;83.63
71299;BME280;59083;47.974;21.722;2022-09-09T10:25:33;100325.75;;;22.31;83.23
71299;BME280;59083;47.974;21.722;2022-09-09T10:29:21;100322.72;;;22.22;83.92
71299;BME280;59083;47.974;21.722;2022-09-09T10:32:36;100314.84;;;22.21;82.32
71299;BME280;59083;47.974;21.722;2022-09-09T10:35:47;100314.34;;;22.34;82.59
71299;BME280;59083;47.974;21.722;2022-09-09T10:39:01;100313.50;;;22.29;83.37
71299;BME280;59083;47.974;21.722;2022-09-09T10:48:31;100320.28;;;22.21;83.72
71299;BME280;59083;47.974;21.722;2022-09-09T10:58:14;100320.53;;;22.19;82.20
71299;BME280;59083;47.974;21.722;2022-09-09T11:01:36;100312.06;;;22.06;82.69
71299;BME280;59083;47.974;21.722;2022-09-09T11:04:53;100322.94;;;22.11;83.20
71299;BME280;59083;47.974;21.722;2022-09-09T11:07:59;100316.16;;;22.13;81.75
71299;BME280;59083;47.974;21.722;2022-09-09T11:11:09;100315.56;;;22.01;82.37
71299;BME280;59083;47.974;21.722;2022-09-09T11:14:39;100323.22;;;22.09;82.94
71299;BME280;59083;47.974;21.722;2022-09-09T11:18:08;100319.03;;;21.92;83.75
71299;BME280;59083;47.974;21.722;2022-09-09T11:21:16;100324.34;;;21.76;84.32
71299;BME280;59083;47.974;21.722;2022-09-09T11:24:38;100320.03;;;21.75;84.31
71299;BME280;59083;47.974;21.722;2022-09-09T11:41:03;100317.88;;;21.82;83.03
71299;BME280;59083;47.974;21.722;2022-09-09T11:44:28;100322.72;;;21.75;83.75
71299;BME280;59083;47.974;21.722;2022-09-09T11:47:31;100327.78;;;21.62;83.28
71299;BME280;59083;47.974;21.722;2022-09-09T11:50:36;100319.63;;;21.57;83.50
71299;BME280;59083;47.974;21.722;2022-09-09T11:53:52;100320.88;;;21.81;83.74
71299;BME280;59083;47.974;21.722;2022-09-09T11:56:55;100323.44;;;22.03;82.85
71299;BME280;59083;47.974;21.722;2022-09-09T11:59:56;100326.81;;;22.25;82.08
71299;BME280;59083;47.974;21.722;2022-09-09T12:02:57;100322.22;;;22.36;81.91
71299;BME280;59083;47.974;21.722;2022-09-09T12:05:59;100324.22;;;22.71;80.10
71299;BME280;59083;47.974;21.722;2022-09-09T12:12:39;100317.38;;;22.53;79.11
71299;BME280;59083;47.974;21.722;2022-09-09T12:15:47;100326.28;;;22.33;80.57
71299;BME280;59083;47.974;21.722;2022-09-09T12:18:49;100325.97;;;22.19;80.97
71299;BME280;59083;47.974;21.722;2022-09-09T12:22:18;100324.50;;;21.97;81.34
71299;BME280;59083;47.974;21.722;2022-09-09T12:28:59;100321.53;;;21.98;81.49
71299;BME280;59083;47.974;21.722;2022-09-09T12:32:13;100318.28;;;22.01;81.51
71299;BME280;59083;47.974;21.722;2022-09-09T12:35:26;100315.34;;;22.13;81.02
71299;BME280;59083;47.974;21.722;2022-09-09T12:38:37;100315.41;;;22.28;81.07
71299;BME280;59083;47.974;21.722;2022-09-09T12:41:39;100318.13;;;22.33;80.33
71299;BME280;59083;47.974;21.722;2022-09-09T12:44:50;100313.97;;;22.10;80.65
71299;BME280;59083;47.974;21.722;2022-09-09T12:48:05;100297.63;;;22.00;81.23
71299;BME280;59083;47.974;21.722;2022-09-09T12:51:28;100300.09;;;22.02;81.13
71299;BME280;59083;47.974;21.722;2022-09-09T12:54:33;100299.00;;;21.98;80.87
71299;BME280;59083;47.974;21.722;2022-09-09T12:57:38;100275.03;;;21.90;80.72
71299;BME280;59083;47.974;21.722;2022-09-09T13:00:49;100286.44;;;21.92;80.54
71299;BME280;59083;47.974;21.722;2022-09-09T13:03:52;100286.78;;;22.00;80.68
71299;BME280;59083;47.974;21.722;2022-09-09T13:06:53;100288.44;;;22.06;80.56
71299;BME280;59083;47.974;21.722;2022-09-09T13:09:56;100283.25;;;22.05;79.62
71299;BME280;59083;47.974;21.722;2022-09-09T13:12:57;100269.16;;;22.03;78.77
71299;BME280;59083;47.974;21.722;2022-09-09T13:16:00;100263.75;;;22.13;78.69
71299;BME280;59083;47.974;21.722;2022-09-09T13:19:13;100258.34;;;22.23;78.88
71299;BME280;59083;47.974;21.722;2022-09-09T13:22:30;100262.47;;;22.36;78.78
71299;BME280;59083;47.974;21.722;2022-09-09T13:25:33;100255.16;;;22.41;78.84
71299;BME280;59083;47.974;21.722;2022-09-09T13:28:36;100255.66;;;22.33;78.19
71299;BME280;59083;47.974;21.722;2022-09-09T13:31:37;100258.34;;;22.23;77.81
71299;BME280;59083;47.974;21.722;2022-09-09T13:34:38;100260.00;;;22.24;77.75
71299;BME280;59083;47.974;21.722;2022-09-09T13:37:40;100248.06;;;22.30;77.66
71299;BME280;59083;47.974;21.722;2022-09-09T13:40:56;100248.66;;;22.42;77.41
71299;BME280;59083;47.974;21.722;2022-09-09T13:43:59;100256.28;;;22.55;77.47
71299;BME280;59083;47.974;21.722;2022-09-09T13:47:21;100257.34;;;22.49;77.08
71299;BME280;59083;47.974;21.722;2022-09-09T13:50:28;100254.59;;;22.34;76.99
71299;BME280;59083;47.974;21.722;2022-09-09T13:53:30;100255.66;;;22.28;77.44
71299;BME280;59083;47.974;21.722;2022-09-09T13:56:33;100248.62;;;22.32;78.01
71299;BME280;59083;47.974;21.722;2022-09-09T13:59:35;100250.78;;;22.35;77.43
71299;BME280;59083;47.974;21.722;2022-09-09T14:02:37;100261.69;;;22.45;77.22
71299;BME280;59083;47.974;21.722;2022-09-09T14:05:40;100258.44;;;22.53;76.62
71299;BME280;59083;47.974;21.722;2022-09-09T14:08:41;100257.37;;;22.54;76.83
71299;BME280;59083;47.974;21.722;2022-09-09T14:11:43;100245.13;;;22.52;76.60
71299;BME280;59083;47.974;21.722;2022-09-09T14:14:44;100243.78;;;22.54;76.48
71299;BME280;59083;47.974;21.722;2022-09-09T14:17:46;100238.34;;;22.54;76.27
71299;BME280;59083;47.974;21.722;2022-09-09T14:20:47;100229.09;;;22.45;76.43
71299;BME280;59083;47.974;21.722;2022-09-09T14:23:49;100236.41;;;22.40;76.61
71299;BME280;59083;47.974;21.722;2022-09-09T14:26:50;100238.28;;;22.24;77.33
71299;BME280;59083;47.974;21.722;2022-09-09T14:29:52;100228.47;;;22.18;76.86
71299;BME280;59083;47.974;21.722;2022-09-09T14:32:53;100236.06;;;22.16;76.67
71299;BME280;59083;47.974;21.722;2022-09-09T14:35:59;100239.09;;;22.24;76.66
71299;BME280;59083;47.974;21.722;2022-09-09T14:39:00;100233.94;;;22.28;76.03
71299;BME280;59083;47.974;21.722;2022-09-09T14:42:02;100226.34;;;22.30;75.77
71299;BME280;59083;47.974;21.722;2022-09-09T14:45:03;100220.34;;;22.28;76.42
71299;BME280;59083;47.974;21.722;2022-09-09T14:48:05;100221.97;;;22.24;77.33
71299;BME280;59083;47.974;21.722;2022-09-09T14:51:08;100224.97;;;22.27;77.26
71299;BME280;59083;47.974;21.722;2022-09-09T14:54:09;100224.69;;;22.24;77.76
71299;BME280;59083;47.974;21.722;2022-09-09T14:57:11;100231.22;;;22.23;77.94
71299;BME280;59083;47.974;21.722;2022-09-09T15:00:13;100227.97;;;22.21;77.27
71299;BME280;59083;47.974;21.722;2022-09-09T15:03:14;100227.66;;;22.17;77.69
71299;BME280;59083;47.974;21.722;2022-09-09T15:06:15;100220.31;;;22.13;77.63
71299;BME280;59083;47.974;21.722;2022-09-09T15:09:17;100217.34;;;22.09;77.97
71299;BME280;59083;47.974;21.722;2022-09-09T15:12:18;100216.50;;;22.04;78.17
71299;BME280;59083;47.974;21.722;2022-09-09T15:15:19;100222.66;;;21.94;78.18
71299;BME280;59083;47.974;21.722;2022-09-09T15:18:22;100216.69;;;21.87;78.91
71299;BME280;59083;47.974;21.722;2022-09-09T15:21:25;100216.69;;;21.87;78.56
71299;BME280;59083;47.974;21.722;2022-09-09T15:24:27;100228.34;;;21.87;78.76
71299;BME280;59083;47.974;21.722;2022-09-09T15:27:28;100225.66;;;21.93;78.71
71299;BME280;59083;47.974;21.722;2022-09-09T15:30:30;100219.72;;;21.96;78.68
71299;BME280;59083;47.974;21.722;2022-09-09T15:33:31;100229.50;;;21.97;78.95
71299;BME280;59083;47.974;21.722;2022-09-09T15:39:35;100242.47;;;21.90;79.26
71299;BME280;59083;47.974;21.722;2022-09-09T15:42:37;100239.19;;;21.87;78.70
71299;BME280;59083;47.974;21.722;2022-09-09T15:45:38;100242.44;;;21.79;79.03
71299;BME280;59083;47.974;21.722;2022-09-09T15:48:39;100255.44;;;21.77;79.15
71299;BME280;59083;47.974;21.722;2022-09-09T15:51:42;100259.78;;;21.73;79.29
71299;BME280;59083;47.974;21.722;2022-09-09T15:54:43;100257.56;;;21.70;79.50
71299;BME280;59083;47.974;21.722;2022-09-09T15:57:46;100249.97;;;21.67;79.66
71299;BME280;59083;47.974;21.722;2022-09-09T16:00:47;100246.16;;;21.63;79.91
71299;BME280;59083;47.974;21.722;2022-09-09T16:03:49;100249.63;;;21.59;80.58
71299;BME280;59083;47.974;21.722;2022-09-09T16:07:02;100246.06;;;21.53;80.56
71299;BME280;59083;47.974;21.722;2022-09-09T16:10:05;100246.59;;;21.45;81.28
71299;BME280;59083;47.974;21.722;2022-09-09T16:13:06;100238.44;;;21.40;81.94
71299;BME280;59083;47.974;21.722;2022-09-09T16:16:12;100236.78;;;21.39;81.58
71299;BME280;59083;47.974;21.722;2022-09-09T16:19:14;100238.91;;;21.32;82.34
71299;BME280;59083;47.974;21.722;2022-09-09T16:22:15;100245.41;;;21.31;82.44
71299;BME280;59083;47.974;21.722;2022-09-09T16:25:16;100247.56;;;21.29;82.64
71299;BME280;59083;47.974;21.722;2022-09-09T16:28:19;100235.91;;;21.28;82.70
71299;BME280;59083;47.974;21.722;2022-09-09T16:31:22;100233.44;;;21.22;83.17
71299;BME280;59083;47.974;21.722;2022-09-09T16:34:24;100231.25;;;21.19;83.89
71299;BME280;59083;47.974;21.722;2022-09-09T16:37:26;100226.28;;;21.11;84.37
71299;BME280;59083;47.974;21.722;2022-09-09T16:40:27;100220.81;;;21.06;84.91
71299;BME280;59083;47.974;21.722;2022-09-09T16:43:28;100222.44;;;21.01;85.73
71299;BME280;59083;47.974;21.722;2022-09-09T16:46:31;100229.41;;;20.97;85.25
71299;BME280;59083;47.974;21.722;2022-09-09T16:49:33;100237.00;;;20.95;85.60
71299;BME280;59083;47.974;21.722;2022-09-09T16:52:35;100251.06;;;20.92;85.88
71299;BME280;59083;47.974;21.722;2022-09-09T16:55:40;100239.09;;;20.88;85.98
71299;BME280;59083;47.974;21.722;2022-09-09T16:58:42;100239.31;;;20.82;86.72
71299;BME280;59083;47.974;21.722;2022-09-09T17:01:48;100247.16;;;20.78;86.96
71299;BME280;59083;47.974;21.722;2022-09-09T17:04:50;100240.31;;;20.71;87.15
71299;BME280;59083;47.974;21.722;2022-09-09T17:07:51;100245.47;;;20.72;87.18
71299;BME280;59083;47.974;21.722;2022-09-09T17:10:53;100246.56;;;20.71;87.78
71299;BME280;59083;47.974;21.722;2022-09-09T17:13:55;100248.69;;;20.69;88.16
71299;BME280;59083;47.974;21.722;2022-09-09T17:16:57;100247.63;;;20.70;88.53
71299;BME280;59083;47.974;21.722;2022-09-09T17:19:58;100252.75;;;20.67;88.51
71299;BME280;59083;47.974;21.722;2022-09-09T17:22:59;100255.13;;;20.63;88.83
71299;BME280;59083;47.974;21.722;2022-09-09T17:26:00;100259.97;;;20.56;89.31
71299;BME280;59083;47.974;21.722;2022-09-09T17:29:02;100262.09;;;20.54;89.67